Farmington, IA (52626)

4:22 AM CST on February 11, 2016 (GMT -0600)
KIADONNE3 | | Change Station
CLOSE
Current Station
Personal Weather Station
Location: Donnellson, IA
Elevation: 700 ft
Nearby Weather Stations

Elev 700 ft 40.63 °N, 91.60 °W | Updated 5 seconds ago

Overcast
Overcast
12.9 °F
Feels Like 13 °F
N
2.7
Wind Variable Wind from North
Gusts 4.9 mph

Today
High -- | Low -- °F
--% Chance of Precip.
Yesterday
High -- | Low -- °F
Precip. -- in
Pressure 30.26 in
Visibility 10.0 miles
Clouds Overcast 3600 ft
Windchill 13 °F
Dew Point -2 °F
Humidity 51%
Rainfall 0.00 in
Snow Depth Not available.
7:06 AM 5:36 PM
Waxing Crescent, 11% visible
METAR KEOK 111015Z AUTO 01005KT 10SM OVC036 M09/M13 A3026 RMK AO2
Pressure 30.26 in
Visibility 10.0 miles
Clouds Overcast 3600 ft
Windchill 13 °F
Dew Point -2 °F
Humidity 51%
Rainfall 0.00 in
Snow Depth Not available.
7:06 AM 5:36 PM
Waxing Crescent, 11% visible
METAR KEOK 111015Z AUTO 01005KT 10SM OVC036 M09/M13 A3026 RMK AO2

10-Day Weather Forecast

Almanac

Astronomy

Feb. 11, 2016 Rise Set
Actual Time
Civil Twilight
Nautical Twilight
Astronomical Twilight
Moon
Length of Visible Light
Length of Day
Tomorrow will be .
, % of the Moon is Illuminated

Today's Extremes

State Highs State Lows

Community

WunderPhotos

Upload Photos

1,892,030 photos uploaded!

WunderBlog® & News

Nearby

Air Quality

  Air Quality AQ Index Pollutant
Not available.

Snow Depth

Station Depth Elevation

Earthquake Activity

City Distance Mag. Time & Date
Minimum magnitude displayed is 2.5.

Coastal Water Temperatures

Place Temperature

Stations

Nearby Weather Stations

Station Location Temp. Windchill Dew Point Humidity Wind Precip. Elev Updated Type
                   

Watches & Warnings

There are currently no watches in effect.